Terminal Aerodrome Forecast
Issued by NWS

Home | Current Version | Previous Version | Graphics & Text | Print | Product List | Glossary On
Versions: 1 2 3 4 5 6 7 8 9 10 11 12 13 14 15 16
000
FTUS43 KFGF 272300
TAFBJI
TAF
KBJI 272334Z 2800/2824 15008KT P6SM BKN120
     FM280300 15009KT P6SM BKN014
     FM280500 14007KT 6SM BR OVC010
     FM282100 VRB06KT P6SM OVC015=

USA.gov is the U.S. government's official web portal to all federal, state and local government web resources and services.